Time;durP1;ratioP1;P1;durP2;ratioP2;P2;SDS_P1;SDS_P2;PMS_P1;PMS_P2;Temp;Humidity;BMP_temperature;BMP_pressure;BME280_temperature;BME280_humidity;BME280_pressure;Samples;Min_cycle;Max_cycle;Signal;HPM_P1;HPM_P2
2021/03/28 00:00:53;;;;;;;14.73;2.83;;;;;;;;;;4984330;28;20041;-58
2021/03/28 00:03:22;;;;;;;12.60;2.63;;;;;;;;;;4985952;28;20188;-62
2021/03/28 00:05:48;;;;;;;7.93;2.45;;;;;;;;;;4984323;28;20027;-61
2021/03/28 00:08:20;;;;;;;13.77;2.85;;;;;;;;;;5005118;28;20046;-59
2021/03/28 00:10:48;;;;;;;9.30;2.40;;;;;;;;;;4983848;28;20046;-57
2021/03/28 00:13:15;;;;;;;13.32;3.05;;;;;;;;;;4987545;28;20049;-58
2021/03/28 00:15:43;;;;;;;14.40;3.13;;;;;;;;;;4997253;28;20048;-60
2021/03/28 00:18:14;;;;;;;10.45;2.38;;;;;;;;;;5008212;28;20116;-56
2021/03/28 00:20:41;;;;;;;8.65;2.58;;;;;;;;;;5007599;28;20057;-59
2021/03/28 00:23:09;;;;;;;14.38;2.50;;;;;;;;;;4989892;28;20049;-56
2021/03/28 00:25:39;;;;;;;6.38;2.17;;;;;;;;;;4991733;28;20053;-57
2021/03/28 00:28:07;;;;;;;12.85;2.60;;;;;;;;;;4987561;28;20487;-56
2021/03/28 00:30:34;;;;;;;10.90;2.20;;;;;;;;;;5008394;28;20056;-60
2021/03/28 00:33:02;;;;;;;12.37;2.60;;;;;;;;;;5004854;28;20042;-59
2021/03/28 00:35:35;;;;;;;22.75;3.40;;;;;;;;;;4996840;28;20049;-61
2021/03/28 00:38:03;;;;;;;12.23;2.70;;;;;;;;;;5003751;28;20048;-60
2021/03/28 00:40:31;;;;;;;12.90;2.75;;;;;;;;;;4984394;28;20110;-60
2021/03/28 00:43:07;;;;;;;12.13;2.45;;;;;;;;;;4988158;28;20050;-60
2021/03/28 00:45:35;;;;;;;13.25;2.80;;;;;;;;;;4992093;28;20049;-61
2021/03/28 00:48:07;;;;;;;9.48;2.95;;;;;;;;;;4986459;28;20050;-60
2021/03/28 00:50:35;;;;;;;9.75;2.45;;;;;;;;;;4983670;28;20048;-61
2021/03/28 00:53:02;;;;;;;11.75;2.65;;;;;;;;;;5004182;28;20042;-57
2021/03/28 00:55:31;;;;;;;8.63;2.55;;;;;;;;;;4985232;28;20042;-59
2021/03/28 00:58:15;;;;;;;16.65;2.92;;;;;;;;;;4983810;28;20061;-59
2021/03/28 01:00:48;;;;;;;10.98;2.30;;;;;;;;;;4985019;28;20041;-58
2021/03/28 01:03:26;;;;;;;19.58;3.15;;;;;;;;;;5004940;28;20051;-58
2021/03/28 01:05:53;;;;;;;16.73;3.50;;;;;;;;;;4999623;28;20102;-61
2021/03/28 01:08:20;;;;;;;10.55;3.13;;;;;;;;;;4946323;28;20054;-60
2021/03/28 01:11:07;;;;;;;14.75;2.90;;;;;;;;;;4946220;28;20054;-58
2021/03/28 01:14:03;;;;;;;12.57;3.58;;;;;;;;;;4978797;28;20074;-59
2021/03/28 01:16:44;;;;;;;14.88;3.25;;;;;;;;;;4981424;28;20034;-61
2021/03/28 01:19:21;;;;;;;14.35;3.22;;;;;;;;;;4966532;28;20046;-57
2021/03/28 01:21:57;;;;;;;14.85;3.17;;;;;;;;;;4944029;28;20057;-61
2021/03/28 01:24:29;;;;;;;13.93;2.95;;;;;;;;;;4948271;28;20062;-62
2021/03/28 01:27:09;;;;;;;13.63;2.75;;;;;;;;;;4961593;28;20087;-56
2021/03/28 01:29:38;;;;;;;10.15;2.83;;;;;;;;;;4948180;28;20095;-59
2021/03/28 01:32:06;;;;;;;12.63;2.92;;;;;;;;;;4961343;28;20046;-59
2021/03/28 01:34:36;;;;;;;13.17;3.20;;;;;;;;;;4946907;28;20035;-59
2021/03/28 01:37:04;;;;;;;9.93;2.65;;;;;;;;;;4963529;28;20293;-57
2021/03/28 01:39:39;;;;;;;16.13;2.95;;;;;;;;;;4963202;28;20027;-58
2021/03/28 01:42:11;;;;;;;14.40;2.75;;;;;;;;;;4983646;28;20481;-59
2021/03/28 01:44:43;;;;;;;9.43;2.67;;;;;;;;;;4981844;28;20046;-58
2021/03/28 01:47:17;;;;;;;13.93;2.95;;;;;;;;;;4982382;28;20148;-59
2021/03/28 01:49:50;;;;;;;14.88;2.78;;;;;;;;;;4964199;28;20114;-58
2021/03/28 01:52:20;;;;;;;11.65;2.45;;;;;;;;;;4964712;28;20031;-55
2021/03/28 01:54:52;;;;;;;16.75;3.42;;;;;;;;;;4960414;28;20043;-61
2021/03/28 01:57:22;;;;;;;13.63;2.17;;;;;;;;;;4963194;28;20031;-60
2021/03/28 01:59:54;;;;;;;14.02;1.95;;;;;;;;;;4953266;28;20038;-59
2021/03/28 02:02:28;;;;;;;10.82;2.42;;;;;;;;;;4973549;28;20531;-60
2021/03/28 02:04:56;;;;;;;17.85;2.25;;;;;;;;;;4967238;28;20039;-57
2021/03/28 02:07:27;;;;;;;14.25;1.98;;;;;;;;;;4987586;28;20042;-59
2021/03/28 02:09:57;;;;;;;7.00;2.08;;;;;;;;;;4994923;28;20042;-62
2021/03/28 02:12:33;;;;;;;5.43;1.65;;;;;;;;;;4982271;28;20061;-61
2021/03/28 02:15:17;;;;;;;8.82;1.80;;;;;;;;;;4978164;28;20046;-60
2021/03/28 02:17:49;;;;;;;12.77;2.17;;;;;;;;;;4981671;28;20053;-59
2021/03/28 02:20:26;;;;;;;16.45;2.22;;;;;;;;;;4978149;28;20061;-60
2021/03/28 02:22:55;;;;;;;10.85;1.73;;;;;;;;;;4982432;28;20054;-60
2021/03/28 02:25:25;;;;;;;15.02;1.67;;;;;;;;;;4980419;28;20061;-60
2021/03/28 02:27:53;;;;;;;11.07;2.13;;;;;;;;;;4981778;28;20065;-61
2021/03/28 02:30:25;;;;;;;11.85;1.85;;;;;;;;;;4985264;28;20042;-61
2021/03/28 02:32:59;;;;;;;8.88;1.67;;;;;;;;;;5001257;28;20053;-61
2021/03/28 02:35:42;;;;;;;11.82;1.65;;;;;;;;;;4987830;28;20027;-61
2021/03/28 02:38:12;;;;;;;6.95;1.52;;;;;;;;;;4980342;28;20046;-56
2021/03/28 02:40:41;;;;;;;11.10;1.98;;;;;;;;;;4978389;28;20035;-61
2021/03/28 02:43:13;;;;;;;5.90;1.42;;;;;;;;;;4985029;28;20042;-62
2021/03/28 02:45:43;;;;;;;10.68;1.70;;;;;;;;;;4985296;28;20063;-63
2021/03/28 02:48:29;;;;;;;9.70;1.38;;;;;;;;;;4982230;28;20071;-59
2021/03/28 02:51:09;;;;;;;8.48;1.67;;;;;;;;;;4981048;28;20051;-61
2021/03/28 02:53:42;;;;;;;12.27;1.67;;;;;;;;;;4968829;28;20042;-62
2021/03/28 02:56:23;;;;;;;9.60;1.52;;;;;;;;;;4987849;28;20312;-62
2021/03/28 02:58:54;;;;;;;7.72;1.60;;;;;;;;;;5000876;28;20110;-59
2021/03/28 03:04:06;;;;;;;6.38;1.48;;;;;;;;;;5015800;28;20054;-62
2021/03/28 03:06:53;;;;;;;14.00;1.83;;;;;;;;;;4996966;28;20057;-61
2021/03/28 03:09:24;;;;;;;12.95;1.88;;;;;;;;;;4985926;28;20516;-60
2021/03/28 03:12:09;;;;;;;10.20;1.90;;;;;;;;;;5015990;28;20039;-59
2021/03/28 03:15:00;;;;;;;6.68;1.83;;;;;;;;;;5023273;28;20048;-61
2021/03/28 03:17:43;;;;;;;10.18;2.20;;;;;;;;;;4997313;28;20033;-61
2021/03/28 03:20:22;;;;;;;11.52;2.08;;;;;;;;;;5024254;28;20038;-61
2021/03/28 03:23:09;;;;;;;7.55;1.95;;;;;;;;;;5008717;28;20038;-60
2021/03/28 03:25:56;;;;;;;6.35;1.45;;;;;;;;;;5000838;28;20053;-61
2021/03/28 03:28:38;;;;;;;8.50;1.58;;;;;;;;;;5024239;28;20033;-61
2021/03/28 03:31:13;;;;;;;7.90;1.73;;;;;;;;;;5010661;28;20050;-61
2021/03/28 03:33:53;;;;;;;8.55;1.50;;;;;;;;;;5007923;28;20030;-56
2021/03/28 03:36:28;;;;;;;8.77;1.58;;;;;;;;;;5003743;28;20049;-62
2021/03/28 03:39:18;;;;;;;9.93;1.63;;;;;;;;;;5009121;28;20034;-60
2021/03/28 03:41:58;;;;;;;12.02;2.00;;;;;;;;;;5006658;28;20030;-58
2021/03/28 03:44:41;;;;;;;5.82;1.40;;;;;;;;;;5025712;28;20034;-59
2021/03/28 03:47:18;;;;;;;7.32;1.52;;;;;;;;;;5016783;28;20033;-61
2021/03/28 03:49:50;;;;;;;5.65;1.42;;;;;;;;;;5009768;28;20041;-59
2021/03/28 03:52:34;;;;;;;12.50;1.95;;;;;;;;;;5003774;28;20046;-61
2021/03/28 03:55:05;;;;;;;7.38;1.65;;;;;;;;;;5027257;28;20119;-61
2021/03/28 03:57:36;;;;;;;8.00;1.63;;;;;;;;;;5018711;28;20057;-58
2021/03/28 04:00:07;;;;;;;9.10;1.33;;;;;;;;;;5008059;28;20045;-55
2021/03/28 04:02:39;;;;;;;11.15;2.30;;;;;;;;;;5000205;28;20068;-58
2021/03/28 04:05:16;;;;;;;10.45;2.00;;;;;;;;;;5005059;28;20146;-59
2021/03/28 04:07:48;;;;;;;11.10;1.60;;;;;;;;;;5007136;28;20042;-58
2021/03/28 04:10:20;;;;;;;6.32;1.65;;;;;;;;;;5001948;28;20042;-61
2021/03/28 04:13:04;;;;;;;8.68;1.80;;;;;;;;;;5006089;28;20030;-61
2021/03/28 04:15:44;;;;;;;11.15;1.30;;;;;;;;;;5000638;28;20042;-59
2021/03/28 04:18:28;;;;;;;6.18;1.38;;;;;;;;;;5004824;28;20038;-59
2021/03/28 04:20:59;;;;;;;8.95;1.70;;;;;;;;;;5002278;28;20057;-58
2021/03/28 04:23:45;;;;;;;7.60;2.13;;;;;;;;;;5004574;28;20101;-57
2021/03/28 04:26:19;;;;;;;6.65;1.63;;;;;;;;;;4992736;28;20111;-55
2021/03/28 04:28:58;;;;;;;12.68;1.50;;;;;;;;;;5008949;28;20038;-62
2021/03/28 04:31:34;;;;;;;14.48;1.85;;;;;;;;;;5000221;28;20038;-59
2021/03/28 04:34:03;;;;;;;6.82;1.55;;;;;;;;;;5003884;28;20057;-60
2021/03/28 04:36:29;;;;;;;;;;;;;;;;;;5000337;28;20073;-61
2021/03/28 04:39:01;;;;;;;5.35;1.23;;;;;;;;;;5020346;28;21201;-62
2021/03/28 04:41:42;;;;;;;9.13;1.95;;;;;;;;;;5000734;28;20042;-62
2021/03/28 04:44:24;;;;;;;8.68;1.73;;;;;;;;;;5005910;28;20046;-62
2021/03/28 04:47:05;;;;;;;9.45;1.70;;;;;;;;;;5000357;28;20042;-60
2021/03/28 04:50:04;;;;;;;5.97;1.23;;;;;;;;;;5001515;28;20038;-62
2021/03/28 04:52:49;;;;;;;7.18;1.55;;;;;;;;;;5000807;28;20061;-60
2021/03/28 04:55:39;;;;;;;7.40;1.48;;;;;;;;;;5003169;28;20046;-58
2021/03/28 04:58:13;;;;;;;11.32;1.30;;;;;;;;;;4983946;28;20038;-62
2021/03/28 05:00:53;;;;;;;6.03;1.50;;;;;;;;;;5000703;28;20147;-58
2021/03/28 05:03:48;;;;;;;10.55;1.40;;;;;;;;;;5001887;28;20309;-58
2021/03/28 05:06:34;;;;;;;8.18;1.45;;;;;;;;;;5000649;28;20046;-60
2021/03/28 05:09:13;;;;;;;3.55;1.33;;;;;;;;;;5004369;28;20078;-58
2021/03/28 05:11:50;;;;;;;13.98;1.60;;;;;;;;;;5001296;28;20049;-57
2021/03/28 05:14:31;;;;;;;7.90;1.70;;;;;;;;;;5021026;28;20050;-55
2021/03/28 05:17:25;;;;;;;8.20;1.40;;;;;;;;;;4986164;28;20127;-59
2021/03/28 05:19:57;;;;;;;7.35;1.75;;;;;;;;;;5004999;28;20034;-56
2021/03/28 05:22:53;;;;;;;9.02;1.75;;;;;;;;;;4997043;28;20042;-59
2021/03/28 05:25:34;;;;;;;4.90;1.20;;;;;;;;;;4985812;28;20050;-59
2021/03/28 05:28:12;;;;;;;9.25;1.67;;;;;;;;;;4977128;28;20049;-62
2021/03/28 05:31:08;;;;;;;10.55;1.48;;;;;;;;;;5003457;28;20520;-54
2021/03/28 05:34:02;;;;;;;5.88;1.30;;;;;;;;;;5000675;28;20112;-60
2021/03/28 05:36:36;;;;;;;6.75;1.80;;;;;;;;;;5006205;28;20107;-59
2021/03/28 05:39:17;;;;;;;9.10;1.77;;;;;;;;;;5000479;28;20165;-58
2021/03/28 05:41:49;;;;;;;8.50;1.52;;;;;;;;;;5001379;28;20031;-56
2021/03/28 05:44:47;;;;;;;12.00;1.77;;;;;;;;;;4990935;28;20050;-55
2021/03/28 05:47:17;;;;;;;8.73;1.52;;;;;;;;;;5004677;28;20034;-57
2021/03/28 05:50:02;;;;;;;5.45;1.60;;;;;;;;;;5002835;28;20044;-55
2021/03/28 05:52:38;;;;;;;5.85;1.50;;;;;;;;;;5023751;28;20061;-58
2021/03/28 05:55:23;;;;;;;5.22;1.42;;;;;;;;;;5006477;28;20042;-61
2021/03/28 05:58:13;;;;;;;7.70;1.50;;;;;;;;;;5005741;28;20104;-62
2021/03/28 06:01:06;;;;;;;8.00;1.20;;;;;;;;;;5005578;28;20038;-54
2021/03/28 06:03:51;;;;;;;7.00;1.55;;;;;;;;;;4929516;28;20034;-59
2021/03/28 06:06:38;;;;;;;6.57;1.27;;;;;;;;;;5004795;28;20066;-61
2021/03/28 06:09:22;;;;;;;3.45;1.10;;;;;;;;;;5001782;28;20059;-60
2021/03/28 06:11:54;;;;;;;5.70;1.30;;;;;;;;;;5005386;28;20089;-61
2021/03/28 06:14:27;;;;;;;5.38;1.45;;;;;;;;;;5001057;28;20049;-62
2021/03/28 06:16:56;;;;;;;7.13;1.40;;;;;;;;;;5005217;28;20287;-62
2021/03/28 06:19:34;;;;;;;6.30;1.42;;;;;;;;;;5001004;28;20046;-61
2021/03/28 06:22:15;;;;;;;5.85;1.45;;;;;;;;;;5005034;28;20030;-62
2021/03/28 06:25:07;;;;;;;8.00;1.60;;;;;;;;;;5000401;28;20150;-58
2021/03/28 06:27:52;;;;;;;8.35;1.45;;;;;;;;;;5005972;28;20090;-60
2021/03/28 06:30:48;;;;;;;6.78;1.48;;;;;;;;;;5005407;28;20083;-63
2021/03/28 06:33:24;;;;;;;6.95;1.33;;;;;;;;;;5007903;28;20074;-60
2021/03/28 06:36:11;;;;;;;6.80;1.98;;;;;;;;;;5003390;28;20448;-59
2021/03/28 06:41:39;;;;;;;6.60;1.55;;;;;;;;;;5071400;27;20115;-61
2021/03/28 06:44:30;;;;;;;7.78;1.40;;;;;;;;;;5052353;28;20415;-60
2021/03/28 06:47:09;;;;;;;10.60;1.80;;;;;;;;;;5053904;28;20053;-58
2021/03/28 06:49:41;;;;;;;12.32;3.00;;;;;;;;;;5092647;28;20069;-57
2021/03/28 06:52:15;;;;;;;9.15;1.80;;;;;;;;;;5090206;28;20040;-59
2021/03/28 06:54:57;;;;;;;5.28;1.45;;;;;;;;;;5058567;28;20056;-58
2021/03/28 06:57:57;;;;;;;9.07;1.63;;;;;;;;;;5056340;28;20060;-61
2021/03/28 07:00:39;;;;;;;8.15;1.73;;;;;;;;;;5070962;28;20060;-55
2021/03/28 07:03:23;;;;;;;8.70;1.77;;;;;;;;;;5077981;28;20044;-58
2021/03/28 07:05:53;;;;;;;12.07;1.73;;;;;;;;;;5073939;28;20260;-57
2021/03/28 07:08:34;;;;;;;7.00;1.83;;;;;;;;;;5075999;28;20043;-59
2021/03/28 07:11:12;;;;;;;9.00;1.50;;;;;;;;;;5065467;28;20058;-57
2021/03/28 07:13:49;;;;;;;9.00;1.80;;;;;;;;;;5071803;28;20497;-57
2021/03/28 07:16:42;;;;;;;11.77;2.10;;;;;;;;;;5055819;28;20540;-59
2021/03/28 07:19:36;;;;;;;9.55;1.58;;;;;;;;;;5071211;28;20036;-57
2021/03/28 07:22:29;;;;;;;4.20;1.60;;;;;;;;;;5013909;28;20443;-58
2021/03/28 07:25:12;;;;;;;5.13;1.50;;;;;;;;;;5035357;28;20053;-58
2021/03/28 07:28:11;;;;;;;7.07;1.63;;;;;;;;;;5071788;28;20050;-55
2021/03/28 07:30:58;;;;;;;11.63;1.77;;;;;;;;;;5075859;28;20101;-58
2021/03/28 07:33:43;;;;;;;10.85;1.73;;;;;;;;;;5048657;28;20056;-57
2021/03/28 07:36:21;;;;;;;11.43;2.15;;;;;;;;;;5078603;28;20055;-58
2021/03/28 07:39:14;;;;;;;11.05;1.40;;;;;;;;;;5083969;28;20441;-56
2021/03/28 07:41:55;;;;;;;6.03;1.63;;;;;;;;;;5075540;28;20048;-59
2021/03/28 07:44:40;;;;;;;7.53;1.60;;;;;;;;;;5067935;28;20668;-61
2021/03/28 07:47:31;;;;;;;8.20;2.17;;;;;;;;;;5083734;28;20044;-57
2021/03/28 07:50:12;;;;;;;6.95;1.60;;;;;;;;;;5075917;28;20060;-57
2021/03/28 07:52:46;;;;;;;12.20;2.17;;;;;;;;;;5061397;28;20047;-59
2021/03/28 07:55:19;;;;;;;5.82;1.90;;;;;;;;;;5065576;28;20055;-58
2021/03/28 07:57:59;;;;;;;9.07;2.05;;;;;;;;;;5061435;28;20032;-57
2021/03/28 08:00:34;;;;;;;15.73;2.20;;;;;;;;;;5056637;28;20044;-57
2021/03/28 08:03:24;;;;;;;9.82;2.35;;;;;;;;;;5061392;28;20055;-57
2021/03/28 08:05:57;;;;;;;10.40;1.92;;;;;;;;;;5054867;28;20048;-57
2021/03/28 08:08:36;;;;;;;9.63;2.15;;;;;;;;;;5045316;28;20112;-59
2021/03/28 08:11:19;;;;;;;11.07;2.20;;;;;;;;;;5045364;28;20041;-57
2021/03/28 08:14:15;;;;;;;7.38;1.95;;;;;;;;;;5036103;28;20037;-58
2021/03/28 08:17:01;;;;;;;10.25;2.05;;;;;;;;;;5063436;28;20106;-59
2021/03/28 08:19:33;;;;;;;8.75;2.17;;;;;;;;;;5060254;28;20052;-60
2021/03/28 08:22:04;;;;;;;10.13;2.22;;;;;;;;;;5065707;28;20046;-57
2021/03/28 08:24:51;;;;;;;11.45;2.00;;;;;;;;;;5058282;28;20047;-58
2021/03/28 08:27:45;;;;;;;11.75;1.98;;;;;;;;;;5063057;28;20060;-58
2021/03/28 08:30:17;;;;;;;9.23;2.00;;;;;;;;;;5059592;28;20126;-60
2021/03/28 08:32:57;;;;;;;11.70;2.45;;;;;;;;;;5077946;28;20132;-58
2021/03/28 08:35:32;;;;;;;7.47;1.90;;;;;;;;;;5078901;28;20036;-61
2021/03/28 08:38:16;;;;;;;6.97;1.50;;;;;;;;;;5080967;28;20063;-60
2021/03/28 08:40:54;;;;;;;4.25;1.40;;;;;;;;;;5044409;28;20061;-59
2021/03/28 08:43:40;;;;;;;14.07;2.17;;;;;;;;;;5064341;28;20051;-60
2021/03/28 08:46:21;;;;;;;8.15;2.05;;;;;;;;;;5016930;28;20060;-60
2021/03/28 08:48:51;;;;;;;11.02;1.63;;;;;;;;;;5026204;28;20057;-57
2021/03/28 08:51:32;;;;;;;11.23;1.88;;;;;;;;;;5051881;28;20037;-59
2021/03/28 08:54:05;;;;;;;9.80;1.98;;;;;;;;;;5062343;28;20291;-61
2021/03/28 08:56:55;;;;;;;9.55;2.10;;;;;;;;;;5044491;28;20543;-60
2021/03/28 08:59:28;;;;;;;14.95;3.97;;;;;;;;;;5041999;28;20041;-60
2021/03/28 09:01:59;;;;;;;11.88;1.63;;;;;;;;;;5039486;28;20040;-61
2021/03/28 09:04:41;;;;;;;5.05;1.42;;;;;;;;;;5056606;28;20037;-57
2021/03/28 09:07:12;;;;;;;7.40;1.67;;;;;;;;;;5039118;28;20049;-59
2021/03/28 09:09:48;;;;;;;7.18;1.42;;;;;;;;;;5057888;28;20033;-57
2021/03/28 09:12:18;;;;;;;11.75;1.77;;;;;;;;;;5055815;28;20483;-57
2021/03/28 09:14:50;;;;;;;10.18;2.35;;;;;;;;;;5069625;28;20033;-58
2021/03/28 09:17:20;;;;;;;8.80;1.95;;;;;;;;;;5044459;28;20041;-58
2021/03/28 09:20:05;;;;;;;9.90;1.63;;;;;;;;;;5057854;28;20094;-58
2021/03/28 09:22:37;;;;;;;13.68;2.50;;;;;;;;;;5038959;28;20033;-58
2021/03/28 09:25:05;;;;;;;13.07;2.58;;;;;;;;;;5042803;28;20029;-58
2021/03/28 09:27:33;;;;;;;9.18;1.80;;;;;;;;;;5048245;28;20056;-57
2021/03/28 09:30:05;;;;;;;7.63;1.83;;;;;;;;;;5042131;28;20041;-53
2021/03/28 09:32:42;;;;;;;10.77;1.70;;;;;;;;;;5040436;28;20118;-57
2021/03/28 09:35:16;;;;;;;9.52;1.77;;;;;;;;;;5058510;28;20021;-60
2021/03/28 09:37:55;;;;;;;16.33;1.73;;;;;;;;;;5045840;28;20083;-60
2021/03/28 09:40:21;;;;;;;;;;;;;;;;;;5054349;28;20123;-59
2021/03/28 09:43:06;;;;;;;14.98;1.92;;;;;;;;;;5028371;28;19937;-59
2021/03/28 09:45:46;;;;;;;9.90;2.05;;;;;;;;;;5038834;28;20040;-57
2021/03/28 09:48:28;;;;;;;7.93;1.50;;;;;;;;;;5036474;28;20037;-58
2021/03/28 09:51:00;;;;;;;10.90;1.75;;;;;;;;;;5041732;28;20061;-58
2021/03/28 09:53:44;;;;;;;7.05;1.63;;;;;;;;;;5037355;28;20041;-59
2021/03/28 09:56:31;;;;;;;10.20;2.10;;;;;;;;;;5042192;28;20073;-59
2021/03/28 09:59:15;;;;;;;7.68;1.50;;;;;;;;;;4994154;28;20448;-57
2021/03/28 10:01:47;;;;;;;8.13;1.50;;;;;;;;;;5019461;28;20494;-59
2021/03/28 10:04:21;;;;;;;11.13;1.90;;;;;;;;;;5032614;28;20402;-58
2021/03/28 10:06:55;;;;;;;9.07;1.80;;;;;;;;;;5040720;28;20057;-59
2021/03/28 10:09:26;;;;;;;6.95;1.55;;;;;;;;;;5054513;28;20037;-59
2021/03/28 10:11:54;;;;;;;9.50;1.60;;;;;;;;;;5039986;28;20049;-60
2021/03/28 10:14:30;;;;;;;13.23;1.50;;;;;;;;;;5037890;28;20044;-57
2021/03/28 10:17:01;;;;;;;7.68;1.50;;;;;;;;;;5040418;28;20416;-56
2021/03/28 10:19:34;;;;;;;10.38;1.58;;;;;;;;;;5017450;28;20034;-58
2021/03/28 10:22:21;;;;;;;9.48;1.90;;;;;;;;;;5040043;28;20045;-60
2021/03/28 10:25:06;;;;;;;9.65;2.00;;;;;;;;;;5016893;28;20119;-60
2021/03/28 10:27:51;;;;;;;13.68;1.77;;;;;;;;;;5022443;28;20048;-59
2021/03/28 10:30:21;;;;;;;4.47;1.23;;;;;;;;;;5017887;28;20045;-59
2021/03/28 10:32:58;;;;;;;8.48;1.33;;;;;;;;;;5021292;28;20041;-57
2021/03/28 10:35:32;;;;;;;3.83;1.00;;;;;;;;;;5004564;28;20057;-59
2021/03/28 10:38:12;;;;;;;10.32;1.45;;;;;;;;;;5002043;28;20034;-59
2021/03/28 10:40:41;;;;;;;6.65;1.20;;;;;;;;;;5028219;28;20025;-58
2021/03/28 10:43:13;;;;;;;10.30;1.50;;;;;;;;;;5044135;28;20040;-58
2021/03/28 10:45:56;;;;;;;6.72;1.40;;;;;;;;;;5054679;28;20056;-60
2021/03/28 10:48:39;;;;;;;9.32;2.22;;;;;;;;;;5037580;28;20376;-57
2021/03/28 10:51:32;;;;;;;7.80;1.05;;;;;;;;;;5046340;28;20069;-58
2021/03/28 10:54:09;;;;;;;10.80;1.30;;;;;;;;;;5041831;28;20029;-59
2021/03/28 10:56:55;;;;;;;10.40;1.38;;;;;;;;;;5040202;28;20053;-57
2021/03/28 10:59:41;;;;;;;11.50;1.33;;;;;;;;;;5019158;28;20030;-57
2021/03/28 11:02:26;;;;;;;9.20;1.42;;;;;;;;;;5056767;28;20053;-58
2021/03/28 11:05:01;;;;;;;6.82;1.08;;;;;;;;;;5037992;28;20097;-57
2021/03/28 11:07:40;;;;;;;7.85;1.58;;;;;;;;;;5056827;28;20425;-57
2021/03/28 11:10:25;;;;;;;10.30;1.40;;;;;;;;;;5036155;28;20048;-58
2021/03/28 11:13:10;;;;;;;9.75;1.10;;;;;;;;;;5040675;28;20041;-59
2021/03/28 11:15:43;;;;;;;7.38;1.50;;;;;;;;;;5056815;28;20048;-59
2021/03/28 11:18:36;;;;;;;5.78;1.30;;;;;;;;;;5060616;28;20044;-59
2021/03/28 11:21:05;;;;;;;9.10;1.20;;;;;;;;;;5052129;28;20272;-59
2021/03/28 11:23:46;;;;;;;6.18;1.00;;;;;;;;;;5039277;28;20041;-59
2021/03/28 11:26:48;;;;;;;5.70;1.25;;;;;;;;;;5036338;28;20049;-58
2021/03/28 11:29:29;;;;;;;7.28;1.20;;;;;;;;;;5042818;28;20132;-57
2021/03/28 11:31:57;;;;;;;6.75;1.20;;;;;;;;;;5038309;28;20049;-58
2021/03/28 11:34:26;;;;;;;11.00;1.58;;;;;;;;;;5042272;28;20590;-59
2021/03/28 11:36:55;;;;;;;9.35;1.77;;;;;;;;;;5039492;28;20045;-57
2021/03/28 11:39:22;;;;;;;7.05;1.67;;;;;;;;;;5045591;28;20052;-58
2021/03/28 11:42:02;;;;;;;8.88;1.90;;;;;;;;;;5042452;28;20084;-57
2021/03/28 11:44:34;;;;;;;8.02;1.90;;;;;;;;;;5063283;28;20056;-59
2021/03/28 11:47:02;;;;;;;6.28;1.50;;;;;;;;;;5044671;28;20044;-57
2021/03/28 11:49:40;;;;;;;4.78;1.20;;;;;;;;;;5066709;28;20584;-60
2021/03/28 11:52:14;;;;;;;12.00;1.42;;;;;;;;;;5057564;28;20408;-60
2021/03/28 11:54:40;;;;;;;7.72;1.30;;;;;;;;;;5062893;28;20036;-59
2021/03/28 11:57:17;;;;;;;10.85;1.38;;;;;;;;;;5081635;28;20042;-60
2021/03/28 11:59:44;;;;;;;9.95;1.75;;;;;;;;;;5066131;28;20037;-60
2021/03/28 12:02:22;;;;;;;4.68;1.17;;;;;;;;;;5061197;28;20055;-60
2021/03/28 12:04:51;;;;;;;11.57;1.25;;;;;;;;;;5046642;28;20125;-60
2021/03/28 12:07:20;;;;;;;6.05;1.25;;;;;;;;;;5044095;28;20134;-59
2021/03/28 12:09:50;;;;;;;9.80;1.40;;;;;;;;;;5044733;28;20040;-57
2021/03/28 12:12:21;;;;;;;5.55;1.13;;;;;;;;;;5045558;28;20083;-60
2021/03/28 12:14:49;;;;;;;10.52;1.38;;;;;;;;;;5061961;28;20032;-59
2021/03/28 12:17:17;;;;;;;6.57;1.27;;;;;;;;;;5066232;28;20146;-59
2021/03/28 12:19:47;;;;;;;7.10;1.30;;;;;;;;;;5064013;28;20040;-59
2021/03/28 12:22:14;;;;;;;11.60;1.63;;;;;;;;;;5064138;28;20371;-57
2021/03/28 12:24:42;;;;;;;9.65;1.17;;;;;;;;;;5057366;28;20422;-59
2021/03/28 12:27:25;;;;;;;5.78;1.27;;;;;;;;;;5086550;28;20048;-58
2021/03/28 12:29:52;;;;;;;5.20;1.20;;;;;;;;;;5062184;28;20033;-60
2021/03/28 12:32:49;;;;;;;9.18;1.45;;;;;;;;;;5062443;28;20055;-60
2021/03/28 12:35:19;;;;;;;11.65;1.80;;;;;;;;;;5041900;28;20044;-60
2021/03/28 12:37:47;;;;;;;12.13;1.45;;;;;;;;;;5051371;28;20040;-59
2021/03/28 12:40:37;;;;;;;10.70;1.50;;;;;;;;;;5061572;28;20041;-59
2021/03/28 12:43:05;;;;;;;8.60;1.63;;;;;;;;;;5043232;28;20055;-60
2021/03/28 12:45:36;;;;;;;10.45;1.20;;;;;;;;;;5038702;28;20045;-60
2021/03/28 12:48:05;;;;;;;10.18;1.30;;;;;;;;;;5045011;28;20071;-59
2021/03/28 12:50:32;;;;;;;10.35;1.80;;;;;;;;;;5061522;28;20064;-60
2021/03/28 12:53:04;;;;;;;9.30;1.65;;;;;;;;;;5079024;28;20033;-60
2021/03/28 12:55:37;;;;;;;5.45;1.70;;;;;;;;;;5076140;28;20045;-59
2021/03/28 12:58:27;;;;;;;9.15;1.52;;;;;;;;;;5078793;28;20056;-60
2021/03/28 13:00:56;;;;;;;12.88;1.50;;;;;;;;;;5029947;28;20040;-60
2021/03/28 13:03:27;;;;;;;9.60;1.33;;;;;;;;;;5044665;28;20450;-61
2021/03/28 13:06:04;;;;;;;13.15;2.13;;;;;;;;;;5053429;28;20033;-58
2021/03/28 13:08:31;;;;;;;9.52;2.30;;;;;;;;;;5066287;28;20050;-61
2021/03/28 13:10:59;;;;;;;7.60;1.80;;;;;;;;;;5067501;28;20048;-58
2021/03/28 13:13:27;;;;;;;9.07;1.60;;;;;;;;;;5080593;28;20044;-60
2021/03/28 13:15:56;;;;;;;15.88;1.90;;;;;;;;;;5056811;28;20045;-60
2021/03/28 13:18:24;;;;;;;13.55;2.05;;;;;;;;;;5061824;28;20033;-58
2021/03/28 13:20:51;;;;;;;13.18;1.80;;;;;;;;;;5075929;28;20052;-60
2021/03/28 13:23:29;;;;;;;7.22;1.58;;;;;;;;;;5064084;28;20151;-60
2021/03/28 13:26:15;;;;;;;8.70;1.70;;;;;;;;;;5048650;28;20045;-60
2021/03/28 13:28:42;;;;;;;4.85;1.38;;;;;;;;;;5043628;28;20077;-59
2021/03/28 13:31:20;;;;;;;6.03;1.67;;;;;;;;;;5046672;28;20052;-60
2021/03/28 13:33:52;;;;;;;6.55;1.88;;;;;;;;;;5065093;28;20052;-59
2021/03/28 13:36:20;;;;;;;16.55;3.50;;;;;;;;;;5062621;28;20043;-59
2021/03/28 13:38:59;;;;;;;21.17;5.22;;;;;;;;;;5065420;28;20064;-60
2021/03/28 13:41:26;;;;;;;10.80;2.50;;;;;;;;;;5049981;28;20036;-60
2021/03/28 13:44:01;;;;;;;9.30;1.98;;;;;;;;;;5061874;28;20045;-62
2021/03/28 13:46:28;;;;;;;11.15;2.28;;;;;;;;;;5055884;28;20060;-60
2021/03/28 13:49:00;;;;;;;6.25;1.58;;;;;;;;;;5041158;28;20041;-61
2021/03/28 13:51:28;;;;;;;12.38;1.60;;;;;;;;;;5055602;28;20052;-58
2021/03/28 13:54:02;;;;;;;10.32;2.10;;;;;;;;;;5041610;28;20127;-61
2021/03/28 13:56:54;;;;;;;12.98;1.90;;;;;;;;;;5042891;28;20038;-61
2021/03/28 13:59:22;;;;;;;12.38;1.30;;;;;;;;;;5032922;28;20045;-61
2021/03/28 14:01:51;;;;;;;7.15;1.65;;;;;;;;;;5039212;28;20037;-59
2021/03/28 14:04:23;;;;;;;10.77;1.75;;;;;;;;;;5043506;28;20047;-60
2021/03/28 14:07:02;;;;;;;13.57;1.60;;;;;;;;;;5045732;28;20102;-61
2021/03/28 14:09:30;;;;;;;9.02;2.13;;;;;;;;;;5040228;28;20060;-61
2021/03/28 14:11:58;;;;;;;17.27;2.45;;;;;;;;;;5042431;28;20044;-60
2021/03/28 14:14:26;;;;;;;10.27;1.85;;;;;;;;;;5044028;28;20040;-62
2021/03/28 14:16:54;;;;;;;12.95;1.70;;;;;;;;;;5041430;28;20057;-61
2021/03/28 14:19:21;;;;;;;7.30;1.40;;;;;;;;;;5038047;28;20048;-61
2021/03/28 14:21:48;;;;;;;8.95;1.60;;;;;;;;;;5040629;28;20060;-60
2021/03/28 14:24:23;;;;;;;5.82;1.67;;;;;;;;;;5038474;28;20119;-61
2021/03/28 14:26:51;;;;;;;17.23;2.40;;;;;;;;;;5042089;28;20041;-60
2021/03/28 14:29:22;;;;;;;8.75;2.08;;;;;;;;;;5038941;28;20048;-60
2021/03/28 14:31:49;;;;;;;10.00;1.63;;;;;;;;;;5040813;28;20041;-61
2021/03/28 14:34:28;;;;;;;10.50;1.88;;;;;;;;;;5053932;28;20041;-60
2021/03/28 14:37:12;;;;;;;10.75;2.10;;;;;;;;;;5040976;28;20037;-60
2021/03/28 14:40:09;;;;;;;7.57;2.28;;;;;;;;;;5042821;28;20072;-58
2021/03/28 14:42:44;;;;;;;8.07;1.92;;;;;;;;;;5075599;28;20045;-62
2021/03/28 14:45:12;;;;;;;14.13;2.13;;;;;;;;;;5056186;28;20033;-59
2021/03/28 14:47:57;;;;;;;15.65;2.10;;;;;;;;;;5057521;28;20040;-60
2021/03/28 14:50:26;;;;;;;7.85;1.63;;;;;;;;;;5021488;28;20065;-60
2021/03/28 14:52:57;;;;;;;10.65;1.98;;;;;;;;;;5020880;28;20104;-60
2021/03/28 14:55:29;;;;;;;12.00;1.73;;;;;;;;;;5017986;28;20034;-59
2021/03/28 14:58:13;;;;;;;11.48;2.63;;;;;;;;;;5020999;28;20074;-60
2021/03/28 15:00:42;;;;;;;9.20;2.15;;;;;;;;;;5031249;28;20045;-60
2021/03/28 15:03:23;;;;;;;8.10;1.80;;;;;;;;;;5044520;28;20066;-61
2021/03/28 15:06:07;;;;;;;8.25;1.90;;;;;;;;;;5027772;28;20054;-61
2021/03/28 15:08:39;;;;;;;10.48;2.25;;;;;;;;;;5032707;28;20041;-59
2021/03/28 15:11:07;;;;;;;11.80;2.33;;;;;;;;;;5034131;28;20037;-59
2021/03/28 15:13:41;;;;;;;15.20;2.53;;;;;;;;;;5043622;28;20045;-60
2021/03/28 15:16:08;;;;;;;11.07;2.30;;;;;;;;;;5027791;28;20033;-60
2021/03/28 15:18:50;;;;;;;14.02;2.60;;;;;;;;;;5023704;28;20052;-61
2021/03/28 15:21:18;;;;;;;8.05;2.45;;;;;;;;;;5032939;28;20033;-59
2021/03/28 15:23:54;;;;;;;13.93;2.55;;;;;;;;;;5060919;28;20037;-60
2021/03/28 15:26:28;;;;;;;13.95;2.63;;;;;;;;;;5055804;28;20055;-60
2021/03/28 15:29:01;;;;;;;16.77;2.75;;;;;;;;;;5040551;28;20054;-59
2021/03/28 15:31:36;;;;;;;15.20;4.25;;;;;;;;;;5038103;28;20042;-60
2021/03/28 15:34:09;;;;;;;11.27;3.70;;;;;;;;;;5044492;28;20066;-60
2021/03/28 15:36:41;;;;;;;10.65;3.00;;;;;;;;;;5058211;28;20045;-60
2021/03/28 15:39:22;;;;;;;11.35;2.53;;;;;;;;;;5059492;28;20041;-61